sensor_id;sensor_type;location;lat;lon;timestamp;P1;durP1;ratioP1;P2;durP2;ratioP2
27889;SDS011;15238;49.082;9.102;2022-07-29T00:00:16;6.07;;;3.55;;
27889;SDS011;15238;49.082;9.102;2022-07-29T00:02:17;5.07;;;3.40;;
27889;SDS011;15238;49.082;9.102;2022-07-29T00:04:17;6.55;;;3.42;;
27889;SDS011;15238;49.082;9.102;2022-07-29T00:06:19;5.93;;;3.20;;
27889;SDS011;15238;49.082;9.102;2022-07-29T00:08:20;5.25;;;3.38;;
27889;SDS011;15238;49.082;9.102;2022-07-29T00:10:21;6.80;;;4.07;;
27889;SDS011;15238;49.082;9.102;2022-07-29T00:12:23;6.18;;;3.28;;
27889;SDS011;15238;49.082;9.102;2022-07-29T00:14:25;4.18;;;3.55;;
27889;SDS011;15238;49.082;9.102;2022-07-29T00:16:25;12.77;;;4.97;;
27889;SDS011;15238;49.082;9.102;2022-07-29T00:18:26;5.05;;;3.72;;
27889;SDS011;15238;49.082;9.102;2022-07-29T00:20:27;4.07;;;3.17;;
27889;SDS011;15238;49.082;9.102;2022-07-29T00:22:27;5.45;;;4.00;;
27889;SDS011;15238;49.082;9.102;2022-07-29T00:24:28;4.80;;;3.75;;
27889;SDS011;15238;49.082;9.102;2022-07-29T00:26:28;5.78;;;3.70;;
27889;SDS011;15238;49.082;9.102;2022-07-29T00:28:31;3.72;;;3.28;;
27889;SDS011;15238;49.082;9.102;2022-07-29T00:30:32;8.77;;;3.80;;
27889;SDS011;15238;49.082;9.102;2022-07-29T00:32:32;4.85;;;3.65;;
27889;SDS011;15238;49.082;9.102;2022-07-29T00:34:33;5.63;;;4.25;;
27889;SDS011;15238;49.082;9.102;2022-07-29T00:36:52;8.68;;;3.88;;
27889;SDS011;15238;49.082;9.102;2022-07-29T00:38:53;6.53;;;4.10;;
27889;SDS011;15238;49.082;9.102;2022-07-29T00:40:54;8.43;;;3.92;;
27889;SDS011;15238;49.082;9.102;2022-07-29T00:42:54;7.00;;;4.07;;
27889;SDS011;15238;49.082;9.102;2022-07-29T00:44:55;3.88;;;3.47;;
27889;SDS011;15238;49.082;9.102;2022-07-29T00:46:55;5.30;;;3.60;;
27889;SDS011;15238;49.082;9.102;2022-07-29T00:48:56;5.38;;;3.80;;
27889;SDS011;15238;49.082;9.102;2022-07-29T00:50:58;5.40;;;3.88;;
27889;SDS011;15238;49.082;9.102;2022-07-29T00:53:01;4.93;;;3.33;;
27889;SDS011;15238;49.082;9.102;2022-07-29T00:55:03;6.28;;;3.20;;
27889;SDS011;15238;49.082;9.102;2022-07-29T00:57:06;4.75;;;3.83;;
27889;SDS011;15238;49.082;9.102;2022-07-29T00:59:07;5.68;;;3.47;;
27889;SDS011;15238;49.082;9.102;2022-07-29T01:01:08;9.45;;;3.78;;
27889;SDS011;15238;49.082;9.102;2022-07-29T01:03:08;5.35;;;4.05;;
27889;SDS011;15238;49.082;9.102;2022-07-29T01:05:09;5.93;;;3.83;;
27889;SDS011;15238;49.082;9.102;2022-07-29T01:07:12;6.30;;;3.60;;
27889;SDS011;15238;49.082;9.102;2022-07-29T01:09:13;6.97;;;3.88;;
27889;SDS011;15238;49.082;9.102;2022-07-29T01:11:15;8.63;;;4.10;;
27889;SDS011;15238;49.082;9.102;2022-07-29T01:13:16;8.63;;;3.47;;
27889;SDS011;15238;49.082;9.102;2022-07-29T01:15:18;6.75;;;3.40;;
27889;SDS011;15238;49.082;9.102;2022-07-29T01:19:55;6.15;;;4.10;;
27889;SDS011;15238;49.082;9.102;2022-07-29T01:21:57;6.38;;;3.70;;
27889;SDS011;15238;49.082;9.102;2022-07-29T01:24:14;5.45;;;3.25;;
27889;SDS011;15238;49.082;9.102;2022-07-29T01:30:59;7.03;;;4.43;;
27889;SDS011;15238;49.082;9.102;2022-07-29T01:33:06;6.10;;;3.80;;
27889;SDS011;15238;49.082;9.102;2022-07-29T01:35:15;4.68;;;3.72;;
27889;SDS011;15238;49.082;9.102;2022-07-29T01:37:37;4.50;;;3.88;;
27889;SDS011;15238;49.082;9.102;2022-07-29T01:39:43;4.47;;;3.65;;
27889;SDS011;15238;49.082;9.102;2022-07-29T01:41:49;4.68;;;3.80;;
27889;SDS011;15238;49.082;9.102;2022-07-29T01:43:57;6.95;;;3.47;;
27889;SDS011;15238;49.082;9.102;2022-07-29T01:46:04;5.05;;;3.67;;
27889;SDS011;15238;49.082;9.102;2022-07-29T01:48:21;4.18;;;3.20;;
27889;SDS011;15238;49.082;9.102;2022-07-29T01:50:35;3.75;;;3.38;;
27889;SDS011;15238;49.082;9.102;2022-07-29T01:52:50;3.80;;;3.28;;
27889;SDS011;15238;49.082;9.102;2022-07-29T01:54:57;6.45;;;3.33;;
27889;SDS011;15238;49.082;9.102;2022-07-29T01:57:02;4.72;;;3.53;;
27889;SDS011;15238;49.082;9.102;2022-07-29T01:59:05;4.22;;;3.83;;
27889;SDS011;15238;49.082;9.102;2022-07-29T02:01:08;6.53;;;3.95;;
27889;SDS011;15238;49.082;9.102;2022-07-29T02:03:11;4.45;;;3.47;;
27889;SDS011;15238;49.082;9.102;2022-07-29T02:05:14;8.85;;;3.83;;
27889;SDS011;15238;49.082;9.102;2022-07-29T02:07:17;9.23;;;4.00;;
27889;SDS011;15238;49.082;9.102;2022-07-29T02:09:20;5.65;;;3.78;;
27889;SDS011;15238;49.082;9.102;2022-07-29T02:11:22;8.25;;;3.85;;
27889;SDS011;15238;49.082;9.102;2022-07-29T02:13:22;4.78;;;3.88;;
27889;SDS011;15238;49.082;9.102;2022-07-29T02:15:24;6.55;;;4.45;;
27889;SDS011;15238;49.082;9.102;2022-07-29T02:17:29;7.22;;;3.65;;
27889;SDS011;15238;49.082;9.102;2022-07-29T02:19:33;4.68;;;3.35;;
27889;SDS011;15238;49.082;9.102;2022-07-29T02:21:36;4.22;;;3.40;;
27889;SDS011;15238;49.082;9.102;2022-07-29T02:23:38;6.45;;;3.72;;
27889;SDS011;15238;49.082;9.102;2022-07-29T02:25:40;5.35;;;4.30;;
27889;SDS011;15238;49.082;9.102;2022-07-29T02:27:41;7.70;;;3.90;;
27889;SDS011;15238;49.082;9.102;2022-07-29T02:29:43;5.60;;;3.67;;
27889;SDS011;15238;49.082;9.102;2022-07-29T02:31:46;4.60;;;3.50;;
27889;SDS011;15238;49.082;9.102;2022-07-29T02:33:49;5.75;;;3.85;;
27889;SDS011;15238;49.082;9.102;2022-07-29T02:35:50;5.88;;;3.75;;
27889;SDS011;15238;49.082;9.102;2022-07-29T02:37:52;4.88;;;3.60;;
27889;SDS011;15238;49.082;9.102;2022-07-29T02:40:13;5.00;;;3.72;;
27889;SDS011;15238;49.082;9.102;2022-07-29T02:42:16;5.72;;;3.15;;
27889;SDS011;15238;49.082;9.102;2022-07-29T02:44:19;5.18;;;3.72;;
27889;SDS011;15238;49.082;9.102;2022-07-29T02:46:26;4.18;;;3.08;;
27889;SDS011;15238;49.082;9.102;2022-07-29T02:48:36;10.10;;;3.90;;
27889;SDS011;15238;49.082;9.102;2022-07-29T02:50:39;8.55;;;3.50;;
27889;SDS011;15238;49.082;9.102;2022-07-29T02:52:58;7.75;;;3.60;;
27889;SDS011;15238;49.082;9.102;2022-07-29T02:55:19;4.72;;;3.47;;
27889;SDS011;15238;49.082;9.102;2022-07-29T02:57:30;4.82;;;3.60;;
27889;SDS011;15238;49.082;9.102;2022-07-29T02:59:34;7.18;;;3.13;;
27889;SDS011;15238;49.082;9.102;2022-07-29T03:01:39;5.50;;;3.70;;
27889;SDS011;15238;49.082;9.102;2022-07-29T03:03:45;4.70;;;3.80;;
27889;SDS011;15238;49.082;9.102;2022-07-29T03:05:48;7.07;;;4.03;;
27889;SDS011;15238;49.082;9.102;2022-07-29T03:07:54;5.13;;;4.00;;
27889;SDS011;15238;49.082;9.102;2022-07-29T03:09:57;8.77;;;4.53;;
27889;SDS011;15238;49.082;9.102;2022-07-29T03:11:58;6.57;;;4.88;;
27889;SDS011;15238;49.082;9.102;2022-07-29T03:14:00;5.03;;;4.35;;
27889;SDS011;15238;49.082;9.102;2022-07-29T03:16:02;9.80;;;4.80;;
27889;SDS011;15238;49.082;9.102;2022-07-29T03:18:03;8.15;;;4.80;;
27889;SDS011;15238;49.082;9.102;2022-07-29T03:20:06;6.80;;;3.92;;
27889;SDS011;15238;49.082;9.102;2022-07-29T03:22:08;4.32;;;3.85;;
27889;SDS011;15238;49.082;9.102;2022-07-29T03:24:09;4.95;;;3.60;;
27889;SDS011;15238;49.082;9.102;2022-07-29T03:26:09;6.72;;;4.25;;
27889;SDS011;15238;49.082;9.102;2022-07-29T03:28:10;6.97;;;4.55;;
27889;SDS011;15238;49.082;9.102;2022-07-29T03:30:11;4.88;;;3.70;;
27889;SDS011;15238;49.082;9.102;2022-07-29T03:32:13;4.25;;;3.80;;
27889;SDS011;15238;49.082;9.102;2022-07-29T03:34:13;8.80;;;4.53;;
27889;SDS011;15238;49.082;9.102;2022-07-29T03:36:14;7.10;;;4.43;;
27889;SDS011;15238;49.082;9.102;2022-07-29T03:38:15;8.27;;;5.43;;
27889;SDS011;15238;49.082;9.102;2022-07-29T03:41:03;8.13;;;4.32;;
27889;SDS011;15238;49.082;9.102;2022-07-29T03:42:51;5.50;;;4.65;;
27889;SDS011;15238;49.082;9.102;2022-07-29T03:44:54;8.43;;;4.65;;
27889;SDS011;15238;49.082;9.102;2022-07-29T03:46:57;7.95;;;4.93;;
27889;SDS011;15238;49.082;9.102;2022-07-29T03:49:02;11.25;;;5.03;;
27889;SDS011;15238;49.082;9.102;2022-07-29T03:51:05;10.23;;;4.55;;
27889;SDS011;15238;49.082;9.102;2022-07-29T03:53:06;9.98;;;4.63;;
27889;SDS011;15238;49.082;9.102;2022-07-29T03:55:07;6.88;;;4.00;;
27889;SDS011;15238;49.082;9.102;2022-07-29T03:57:09;6.40;;;4.90;;
27889;SDS011;15238;49.082;9.102;2022-07-29T03:59:11;6.93;;;4.80;;
27889;SDS011;15238;49.082;9.102;2022-07-29T04:01:16;6.47;;;4.63;;
27889;SDS011;15238;49.082;9.102;2022-07-29T04:03:18;10.90;;;5.00;;
27889;SDS011;15238;49.082;9.102;2022-07-29T04:05:19;8.32;;;4.80;;
27889;SDS011;15238;49.082;9.102;2022-07-29T04:07:20;7.95;;;5.22;;
27889;SDS011;15238;49.082;9.102;2022-07-29T04:09:20;6.55;;;4.40;;
27889;SDS011;15238;49.082;9.102;2022-07-29T04:11:21;6.53;;;4.30;;
27889;SDS011;15238;49.082;9.102;2022-07-29T04:13:21;6.70;;;4.25;;
27889;SDS011;15238;49.082;9.102;2022-07-29T04:15:22;4.93;;;4.10;;
27889;SDS011;15238;49.082;9.102;2022-07-29T04:17:22;7.25;;;4.30;;
27889;SDS011;15238;49.082;9.102;2022-07-29T04:19:23;8.23;;;5.55;;
27889;SDS011;15238;49.082;9.102;2022-07-29T04:21:23;5.55;;;4.47;;
27889;SDS011;15238;49.082;9.102;2022-07-29T04:23:24;8.57;;;5.07;;
27889;SDS011;15238;49.082;9.102;2022-07-29T04:25:26;5.15;;;4.43;;
27889;SDS011;15238;49.082;9.102;2022-07-29T04:27:26;6.68;;;4.68;;
27889;SDS011;15238;49.082;9.102;2022-07-29T04:29:27;9.15;;;4.75;;
27889;SDS011;15238;49.082;9.102;2022-07-29T04:31:27;11.70;;;5.85;;
27889;SDS011;15238;49.082;9.102;2022-07-29T04:33:28;6.47;;;4.82;;
27889;SDS011;15238;49.082;9.102;2022-07-29T04:35:29;8.93;;;5.35;;
27889;SDS011;15238;49.082;9.102;2022-07-29T04:37:30;6.85;;;4.45;;
27889;SDS011;15238;49.082;9.102;2022-07-29T04:39:31;6.85;;;4.78;;
27889;SDS011;15238;49.082;9.102;2022-07-29T04:41:31;5.68;;;4.63;;
27889;SDS011;15238;49.082;9.102;2022-07-29T04:43:32;7.40;;;4.80;;
27889;SDS011;15238;49.082;9.102;2022-07-29T04:45:33;5.93;;;4.32;;
27889;SDS011;15238;49.082;9.102;2022-07-29T04:47:34;8.70;;;4.50;;
27889;SDS011;15238;49.082;9.102;2022-07-29T04:49:36;10.82;;;5.07;;
27889;SDS011;15238;49.082;9.102;2022-07-29T04:51:38;6.43;;;4.55;;
27889;SDS011;15238;49.082;9.102;2022-07-29T04:53:38;9.52;;;4.22;;
27889;SDS011;15238;49.082;9.102;2022-07-29T04:55:39;7.47;;;4.78;;
27889;SDS011;15238;49.082;9.102;2022-07-29T04:57:39;5.65;;;4.35;;
27889;SDS011;15238;49.082;9.102;2022-07-29T04:59:40;6.85;;;4.45;;
27889;SDS011;15238;49.082;9.102;2022-07-29T05:01:40;5.85;;;4.10;;
27889;SDS011;15238;49.082;9.102;2022-07-29T05:03:41;8.35;;;4.47;;
27889;SDS011;15238;49.082;9.102;2022-07-29T05:05:41;4.88;;;4.35;;
27889;SDS011;15238;49.082;9.102;2022-07-29T05:07:42;8.88;;;4.30;;
27889;SDS011;15238;49.082;9.102;2022-07-29T05:09:43;6.18;;;4.35;;
27889;SDS011;15238;49.082;9.102;2022-07-29T05:11:43;7.13;;;4.25;;
27889;SDS011;15238;49.082;9.102;2022-07-29T05:13:44;7.82;;;4.05;;
27889;SDS011;15238;49.082;9.102;2022-07-29T05:15:45;5.05;;;4.25;;
27889;SDS011;15238;49.082;9.102;2022-07-29T05:17:45;6.50;;;4.10;;
27889;SDS011;15238;49.082;9.102;2022-07-29T05:19:46;7.30;;;4.07;;
27889;SDS011;15238;49.082;9.102;2022-07-29T05:21:46;7.70;;;4.15;;
27889;SDS011;15238;49.082;9.102;2022-07-29T05:23:47;6.00;;;4.40;;
27889;SDS011;15238;49.082;9.102;2022-07-29T05:25:48;7.28;;;4.43;;
27889;SDS011;15238;49.082;9.102;2022-07-29T05:27:50;7.70;;;4.03;;
27889;SDS011;15238;49.082;9.102;2022-07-29T05:29:50;7.15;;;4.25;;
27889;SDS011;15238;49.082;9.102;2022-07-29T05:31:51;7.78;;;4.22;;
27889;SDS011;15238;49.082;9.102;2022-07-29T05:33:52;6.32;;;4.30;;
27889;SDS011;15238;49.082;9.102;2022-07-29T05:35:53;7.13;;;4.25;;
27889;SDS011;15238;49.082;9.102;2022-07-29T05:37:53;6.78;;;4.15;;
27889;SDS011;15238;49.082;9.102;2022-07-29T05:39:54;7.57;;;4.45;;
27889;SDS011;15238;49.082;9.102;2022-07-29T05:41:54;7.25;;;4.38;;
27889;SDS011;15238;49.082;9.102;2022-07-29T05:43:55;7.43;;;4.18;;
27889;SDS011;15238;49.082;9.102;2022-07-29T05:45:55;4.60;;;4.15;;
27889;SDS011;15238;49.082;9.102;2022-07-29T05:47:56;5.65;;;4.40;;
27889;SDS011;15238;49.082;9.102;2022-07-29T05:49:57;6.28;;;4.10;;
27889;SDS011;15238;49.082;9.102;2022-07-29T05:51:57;5.10;;;4.03;;
27889;SDS011;15238;49.082;9.102;2022-07-29T05:53:58;5.30;;;3.97;;
27889;SDS011;15238;49.082;9.102;2022-07-29T05:55:58;5.45;;;4.25;;
27889;SDS011;15238;49.082;9.102;2022-07-29T05:58:03;8.23;;;5.15;;
27889;SDS011;15238;49.082;9.102;2022-07-29T06:00:04;7.43;;;5.15;;
27889;SDS011;15238;49.082;9.102;2022-07-29T06:02:05;7.20;;;4.85;;
27889;SDS011;15238;49.082;9.102;2022-07-29T06:04:06;4.90;;;3.80;;
27889;SDS011;15238;49.082;9.102;2022-07-29T06:06:07;4.45;;;3.25;;
27889;SDS011;15238;49.082;9.102;2022-07-29T06:08:07;5.72;;;4.00;;
27889;SDS011;15238;49.082;9.102;2022-07-29T06:10:08;6.03;;;3.45;;
27889;SDS011;15238;49.082;9.102;2022-07-29T06:12:09;6.72;;;3.55;;
27889;SDS011;15238;49.082;9.102;2022-07-29T06:14:09;4.38;;;3.50;;
27889;SDS011;15238;49.082;9.102;2022-07-29T06:16:10;3.53;;;3.22;;
27889;SDS011;15238;49.082;9.102;2022-07-29T06:18:11;6.43;;;3.80;;
27889;SDS011;15238;49.082;9.102;2022-07-29T06:20:13;9.27;;;3.78;;
27889;SDS011;15238;49.082;9.102;2022-07-29T06:22:14;10.07;;;3.78;;
27889;SDS011;15238;49.082;9.102;2022-07-29T06:24:16;4.90;;;3.50;;
27889;SDS011;15238;49.082;9.102;2022-07-29T06:26:17;8.95;;;3.67;;
27889;SDS011;15238;49.082;9.102;2022-07-29T06:28:17;4.45;;;3.47;;
27889;SDS011;15238;49.082;9.102;2022-07-29T06:30:18;4.22;;;3.20;;
27889;SDS011;15238;49.082;9.102;2022-07-29T06:32:18;5.00;;;3.38;;
27889;SDS011;15238;49.082;9.102;2022-07-29T06:34:19;5.40;;;3.30;;
27889;SDS011;15238;49.082;9.102;2022-07-29T06:36:20;5.40;;;3.60;;
27889;SDS011;15238;49.082;9.102;2022-07-29T06:38:20;7.32;;;3.30;;
27889;SDS011;15238;49.082;9.102;2022-07-29T06:40:21;5.82;;;3.40;;
27889;SDS011;15238;49.082;9.102;2022-07-29T06:42:42;5.30;;;3.20;;
27889;SDS011;15238;49.082;9.102;2022-07-29T06:44:43;4.15;;;2.78;;
27889;SDS011;15238;49.082;9.102;2022-07-29T06:46:44;7.60;;;2.78;;
27889;SDS011;15238;49.082;9.102;2022-07-29T06:48:47;3.70;;;3.03;;
27889;SDS011;15238;49.082;9.102;2022-07-29T06:50:47;5.05;;;3.10;;
27889;SDS011;15238;49.082;9.102;2022-07-29T06:52:48;7.68;;;3.13;;
27889;SDS011;15238;49.082;9.102;2022-07-29T06:54:48;4.88;;;2.97;;
27889;SDS011;15238;49.082;9.102;2022-07-29T06:56:49;4.95;;;2.80;;
27889;SDS011;15238;49.082;9.102;2022-07-29T06:58:49;4.28;;;2.90;;
27889;SDS011;15238;49.082;9.102;2022-07-29T07:00:50;5.68;;;2.97;;
27889;SDS011;15238;49.082;9.102;2022-07-29T07:02:50;2.50;;;2.30;;
27889;SDS011;15238;49.082;9.102;2022-07-29T07:04:51;3.08;;;2.50;;
27889;SDS011;15238;49.082;9.102;2022-07-29T07:06:52;6.40;;;2.78;;
27889;SDS011;15238;49.082;9.102;2022-07-29T07:08:53;4.35;;;2.78;;
27889;SDS011;15238;49.082;9.102;2022-07-29T07:10:53;5.00;;;2.60;;
27889;SDS011;15238;49.082;9.102;2022-07-29T07:12:55;3.45;;;2.53;;
27889;SDS011;15238;49.082;9.102;2022-07-29T07:14:55;5.85;;;2.55;;
27889;SDS011;15238;49.082;9.102;2022-07-29T07:16:56;2.63;;;2.28;;
27889;SDS011;15238;49.082;9.102;2022-07-29T07:18:56;5.78;;;2.67;;
27889;SDS011;15238;49.082;9.102;2022-07-29T07:20:57;6.03;;;2.40;;
27889;SDS011;15238;49.082;9.102;2022-07-29T07:22:58;2.65;;;2.25;;
27889;SDS011;15238;49.082;9.102;2022-07-29T07:24:58;4.05;;;2.72;;
27889;SDS011;15238;49.082;9.102;2022-07-29T07:26:59;6.82;;;2.97;;
27889;SDS011;15238;49.082;9.102;2022-07-29T07:28:59;5.07;;;2.80;;
27889;SDS011;15238;49.082;9.102;2022-07-29T07:31:00;4.75;;;2.50;;
27889;SDS011;15238;49.082;9.102;2022-07-29T07:33:00;4.53;;;2.33;;
27889;SDS011;15238;49.082;9.102;2022-07-29T07:35:02;7.60;;;2.50;;
27889;SDS011;15238;49.082;9.102;2022-07-29T07:37:06;3.97;;;2.75;;
27889;SDS011;15238;49.082;9.102;2022-07-29T07:39:07;4.22;;;2.80;;
27889;SDS011;15238;49.082;9.102;2022-07-29T07:41:07;6.65;;;2.55;;
27889;SDS011;15238;49.082;9.102;2022-07-29T07:43:08;4.75;;;2.85;;
27889;SDS011;15238;49.082;9.102;2022-07-29T07:45:08;6.80;;;2.97;;
27889;SDS011;15238;49.082;9.102;2022-07-29T07:47:09;3.80;;;2.63;;
27889;SDS011;15238;49.082;9.102;2022-07-29T07:49:10;5.05;;;2.70;;
27889;SDS011;15238;49.082;9.102;2022-07-29T07:51:11;4.68;;;2.83;;
27889;SDS011;15238;49.082;9.102;2022-07-29T07:53:11;3.25;;;2.85;;
27889;SDS011;15238;49.082;9.102;2022-07-29T07:55:12;8.15;;;2.90;;
27889;SDS011;15238;49.082;9.102;2022-07-29T07:57:12;3.90;;;2.70;;
27889;SDS011;15238;49.082;9.102;2022-07-29T07:59:13;6.07;;;2.85;;
27889;SDS011;15238;49.082;9.102;2022-07-29T08:01:14;9.93;;;3.20;;
27889;SDS011;15238;49.082;9.102;2022-07-29T08:03:18;5.15;;;3.00;;
27889;SDS011;15238;49.082;9.102;2022-07-29T08:05:19;6.25;;;3.08;;
27889;SDS011;15238;49.082;9.102;2022-07-29T08:07:19;4.38;;;2.97;;
27889;SDS011;15238;49.082;9.102;2022-07-29T08:09:20;6.90;;;2.60;;
27889;SDS011;15238;49.082;9.102;2022-07-29T08:11:21;6.20;;;2.50;;
27889;SDS011;15238;49.082;9.102;2022-07-29T08:13:22;3.90;;;3.20;;
27889;SDS011;15238;49.082;9.102;2022-07-29T08:15:25;6.60;;;2.78;;
27889;SDS011;15238;49.082;9.102;2022-07-29T08:17:25;9.50;;;3.22;;
27889;SDS011;15238;49.082;9.102;2022-07-29T08:19:26;3.90;;;2.70;;
27889;SDS011;15238;49.082;9.102;2022-07-29T08:21:27;5.55;;;2.90;;
27889;SDS011;15238;49.082;9.102;2022-07-29T08:23:27;4.82;;;3.03;;
27889;SDS011;15238;49.082;9.102;2022-07-29T08:25:35;5.00;;;2.88;;
27889;SDS011;15238;49.082;9.102;2022-07-29T08:27:38;6.25;;;3.35;;
27889;SDS011;15238;49.082;9.102;2022-07-29T08:29:38;3.72;;;2.95;;
27889;SDS011;15238;49.082;9.102;2022-07-29T08:31:39;5.07;;;3.13;;
27889;SDS011;15238;49.082;9.102;2022-07-29T08:33:40;5.05;;;3.10;;
27889;SDS011;15238;49.082;9.102;2022-07-29T08:35:41;5.65;;;2.95;;
27889;SDS011;15238;49.082;9.102;2022-07-29T08:37:41;5.30;;;3.30;;
27889;SDS011;15238;49.082;9.102;2022-07-29T08:39:42;5.43;;;3.30;;
27889;SDS011;15238;49.082;9.102;2022-07-29T08:41:42;6.47;;;2.97;;
27889;SDS011;15238;49.082;9.102;2022-07-29T08:43:43;8.25;;;3.28;;
27889;SDS011;15238;49.082;9.102;2022-07-29T08:45:44;4.38;;;3.22;;
27889;SDS011;15238;49.082;9.102;2022-07-29T08:47:46;6.18;;;3.25;;
27889;SDS011;15238;49.082;9.102;2022-07-29T08:49:47;10.25;;;3.42;;
27889;SDS011;15238;49.082;9.102;2022-07-29T08:51:48;6.00;;;3.60;;
27889;SDS011;15238;49.082;9.102;2022-07-29T08:53:49;7.38;;;3.22;;
27889;SDS011;15238;49.082;9.102;2022-07-29T08:55:50;8.95;;;3.60;;
27889;SDS011;15238;49.082;9.102;2022-07-29T08:57:51;6.13;;;3.53;;
27889;SDS011;15238;49.082;9.102;2022-07-29T08:59:53;9.25;;;3.35;;
27889;SDS011;15238;49.082;9.102;2022-07-29T09:01:54;7.63;;;3.85;;
27889;SDS011;15238;49.082;9.102;2022-07-29T09:03:59;8.00;;;3.17;;
27889;SDS011;15238;49.082;9.102;2022-07-29T09:06:03;4.38;;;2.97;;
27889;SDS011;15238;49.082;9.102;2022-07-29T09:08:04;10.85;;;3.47;;
27889;SDS011;15238;49.082;9.102;2022-07-29T09:10:05;4.40;;;3.47;;
27889;SDS011;15238;49.082;9.102;2022-07-29T09:12:06;4.95;;;3.67;;
27889;SDS011;15238;49.082;9.102;2022-07-29T09:14:08;8.13;;;3.55;;
27889;SDS011;15238;49.082;9.102;2022-07-29T09:16:11;7.25;;;3.72;;
27889;SDS011;15238;49.082;9.102;2022-07-29T09:18:12;8.43;;;3.85;;
27889;SDS011;15238;49.082;9.102;2022-07-29T09:20:32;5.88;;;3.42;;
27889;SDS011;15238;49.082;9.102;2022-07-29T09:22:52;9.20;;;3.72;;
27889;SDS011;15238;49.082;9.102;2022-07-29T09:24:53;4.03;;;3.30;;
27889;SDS011;15238;49.082;9.102;2022-07-29T09:26:54;5.18;;;3.65;;
27889;SDS011;15238;49.082;9.102;2022-07-29T09:28:55;4.57;;;3.55;;
27889;SDS011;15238;49.082;9.102;2022-07-29T09:30:56;13.75;;;3.65;;
27889;SDS011;15238;49.082;9.102;2022-07-29T09:33:01;8.88;;;3.63;;
27889;SDS011;15238;49.082;9.102;2022-07-29T09:35:22;7.00;;;3.10;;
27889;SDS011;15238;49.082;9.102;2022-07-29T09:37:27;4.57;;;3.28;;
27889;SDS011;15238;49.082;9.102;2022-07-29T09:39:29;6.43;;;3.35;;
27889;SDS011;15238;49.082;9.102;2022-07-29T09:41:30;5.80;;;3.30;;
27889;SDS011;15238;49.082;9.102;2022-07-29T09:43:56;7.68;;;3.30;;
27889;SDS011;15238;49.082;9.102;2022-07-29T09:46:09;4.65;;;2.97;;
27889;SDS011;15238;49.082;9.102;2022-07-29T09:48:15;4.95;;;3.30;;
27889;SDS011;15238;49.082;9.102;2022-07-29T09:50:17;9.00;;;3.35;;
27889;SDS011;15238;49.082;9.102;2022-07-29T09:52:24;3.92;;;3.20;;
27889;SDS011;15238;49.082;9.102;2022-07-29T09:54:26;7.35;;;3.00;;
27889;SDS011;15238;49.082;9.102;2022-07-29T09:56:40;4.70;;;2.72;;
27889;SDS011;15238;49.082;9.102;2022-07-29T09:58:41;4.10;;;2.58;;
27889;SDS011;15238;49.082;9.102;2022-07-29T10:00:41;5.85;;;3.13;;
27889;SDS011;15238;49.082;9.102;2022-07-29T10:02:43;4.78;;;2.75;;
27889;SDS011;15238;49.082;9.102;2022-07-29T10:04:45;3.35;;;3.00;;
27889;SDS011;15238;49.082;9.102;2022-07-29T10:06:59;6.50;;;2.72;;
27889;SDS011;15238;49.082;9.102;2022-07-29T10:09:07;5.20;;;3.00;;
27889;SDS011;15238;49.082;9.102;2022-07-29T10:11:10;5.72;;;3.03;;
27889;SDS011;15238;49.082;9.102;2022-07-29T10:13:14;6.80;;;2.92;;
27889;SDS011;15238;49.082;9.102;2022-07-29T10:15:15;5.45;;;2.85;;
27889;SDS011;15238;49.082;9.102;2022-07-29T10:17:16;3.58;;;2.70;;
27889;SDS011;15238;49.082;9.102;2022-07-29T10:19:18;5.03;;;2.80;;
27889;SDS011;15238;49.082;9.102;2022-07-29T10:21:19;8.18;;;3.47;;
27889;SDS011;15238;49.082;9.102;2022-07-29T10:23:20;5.88;;;3.08;;
27889;SDS011;15238;49.082;9.102;2022-07-29T10:25:21;8.63;;;2.80;;
27889;SDS011;15238;49.082;9.102;2022-07-29T10:27:22;4.38;;;3.20;;
27889;SDS011;15238;49.082;9.102;2022-07-29T10:29:23;3.97;;;2.72;;
27889;SDS011;15238;49.082;9.102;2022-07-29T10:31:27;6.25;;;2.90;;
27889;SDS011;15238;49.082;9.102;2022-07-29T10:33:50;4.20;;;2.85;;
27889;SDS011;15238;49.082;9.102;2022-07-29T10:36:07;7.50;;;3.20;;
27889;SDS011;15238;49.082;9.102;2022-07-29T10:43:31;7.35;;;3.10;;
27889;SDS011;15238;49.082;9.102;2022-07-29T10:45:36;5.93;;;2.80;;
27889;SDS011;15238;49.082;9.102;2022-07-29T10:47:36;3.97;;;3.00;;
27889;SDS011;15238;49.082;9.102;2022-07-29T10:49:37;6.90;;;3.45;;
27889;SDS011;15238;49.082;9.102;2022-07-29T10:51:59;4.28;;;3.63;;
27889;SDS011;15238;49.082;9.102;2022-07-29T10:54:05;5.38;;;3.13;;
27889;SDS011;15238;49.082;9.102;2022-07-29T10:56:07;6.25;;;3.03;;
27889;SDS011;15238;49.082;9.102;2022-07-29T10:58:33;6.50;;;3.50;;
27889;SDS011;15238;49.082;9.102;2022-07-29T11:00:34;8.48;;;3.45;;
27889;SDS011;15238;49.082;9.102;2022-07-29T11:09:17;9.93;;;3.28;;
27889;SDS011;15238;49.082;9.102;2022-07-29T11:15:55;7.82;;;3.33;;
27889;SDS011;15238;49.082;9.102;2022-07-29T11:22:40;5.63;;;3.05;;
27889;SDS011;15238;49.082;9.102;2022-07-29T11:24:40;7.55;;;3.25;;
27889;SDS011;15238;49.082;9.102;2022-07-29T11:26:41;5.55;;;3.50;;
27889;SDS011;15238;49.082;9.102;2022-07-29T11:28:48;6.22;;;3.65;;
27889;SDS011;15238;49.082;9.102;2022-07-29T11:30:52;6.65;;;3.42;;
27889;SDS011;15238;49.082;9.102;2022-07-29T11:32:54;5.32;;;3.60;;
27889;SDS011;15238;49.082;9.102;2022-07-29T11:37:16;4.82;;;2.92;;
27889;SDS011;15238;49.082;9.102;2022-07-29T11:39:28;5.90;;;3.38;;
27889;SDS011;15238;49.082;9.102;2022-07-29T11:41:28;6.80;;;3.50;;
27889;SDS011;15238;49.082;9.102;2022-07-29T11:46:02;5.13;;;3.17;;
27889;SDS011;15238;49.082;9.102;2022-07-29T11:48:03;3.53;;;2.92;;
27889;SDS011;15238;49.082;9.102;2022-07-29T11:50:06;7.45;;;3.10;;
27889;SDS011;15238;49.082;9.102;2022-07-29T11:52:09;6.07;;;2.90;;
27889;SDS011;15238;49.082;9.102;2022-07-29T11:54:10;3.63;;;3.33;;
27889;SDS011;15238;49.082;9.102;2022-07-29T11:56:15;7.00;;;3.15;;
27889;SDS011;15238;49.082;9.102;2022-07-29T11:58:21;4.35;;;3.22;;
27889;SDS011;15238;49.082;9.102;2022-07-29T12:00:39;4.47;;;3.28;;
27889;SDS011;15238;49.082;9.102;2022-07-29T12:02:41;4.90;;;3.03;;
27889;SDS011;15238;49.082;9.102;2022-07-29T12:04:52;8.18;;;3.47;;
27889;SDS011;15238;49.082;9.102;2022-07-29T12:06:54;3.90;;;2.85;;
27889;SDS011;15238;49.082;9.102;2022-07-29T12:08:56;3.75;;;3.13;;
27889;SDS011;15238;49.082;9.102;2022-07-29T12:10:56;4.20;;;2.70;;
27889;SDS011;15238;49.082;9.102;2022-07-29T12:12:57;5.75;;;3.22;;
27889;SDS011;15238;49.082;9.102;2022-07-29T12:14:58;5.82;;;3.10;;
27889;SDS011;15238;49.082;9.102;2022-07-29T12:17:21;7.97;;;3.13;;
27889;SDS011;15238;49.082;9.102;2022-07-29T12:19:28;5.60;;;3.50;;
27889;SDS011;15238;49.082;9.102;2022-07-29T12:21:46;6.28;;;3.08;;
27889;SDS011;15238;49.082;9.102;2022-07-29T12:23:54;6.75;;;2.83;;
27889;SDS011;15238;49.082;9.102;2022-07-29T12:25:56;11.60;;;3.20;;
27889;SDS011;15238;49.082;9.102;2022-07-29T12:28:02;4.88;;;3.28;;
27889;SDS011;15238;49.082;9.102;2022-07-29T12:30:05;8.30;;;3.38;;
27889;SDS011;15238;49.082;9.102;2022-07-29T12:32:15;8.35;;;3.30;;
27889;SDS011;15238;49.082;9.102;2022-07-29T12:34:15;5.60;;;3.17;;
27889;SDS011;15238;49.082;9.102;2022-07-29T12:36:16;5.90;;;2.90;;
27889;SDS011;15238;49.082;9.102;2022-07-29T12:38:17;5.45;;;3.20;;
27889;SDS011;15238;49.082;9.102;2022-07-29T12:40:18;4.88;;;2.80;;
27889;SDS011;15238;49.082;9.102;2022-07-29T12:42:20;8.38;;;2.95;;
27889;SDS011;15238;49.082;9.102;2022-07-29T12:44:21;4.63;;;2.75;;
27889;SDS011;15238;49.082;9.102;2022-07-29T12:46:21;7.57;;;2.92;;
27889;SDS011;15238;49.082;9.102;2022-07-29T12:48:38;4.82;;;2.80;;
27889;SDS011;15238;49.082;9.102;2022-07-29T12:50:53;6.57;;;2.67;;
27889;SDS011;15238;49.082;9.102;2022-07-29T12:53:09;7.13;;;2.53;;
27889;SDS011;15238;49.082;9.102;2022-07-29T12:55:11;3.10;;;2.70;;